This is the latest recevied weather packets stored in our database for station/object SP6RGZ-1. If no packets are shown the sender has not sent any weather packets the latest 10 day(s).
| Time | Temp. | Humidity | Pressure | Rain* | Wind** | Luminosity | Snow |
|---|---|---|---|---|---|---|---|
| 1777886102 | 28.33° C | 34% | 994.6 hPa | - | - | - | - |
| 1777885202 | 28.33° C | 34% | 994.6 hPa | - | - | - | - |
| 1777884302 | 27.78° C | 34% | 994.7 hPa | - | - | - | - |
| 1777883403 | 27.22° C | 35% | 994.7 hPa | - | - | - | - |
| 1777882503 | 26.67° C | 36% | 994.7 hPa | - | - | - | - |
| 1777881603 | 26.67° C | 36% | 994.5 hPa | - | - | - | - |
| 1777880702 | 25.56° C | 38% | 994.6 hPa | - | - | - | - |
| 1777879802 | 24.44° C | 40% | 994.6 hPa | - | - | - | - |
| 1777878902 | 23.33° C | 41% | 994.6 hPa | - | - | - | - |
| 1777878002 | 21.67° C | 45% | 994.5 hPa | - | - | - | - |
| 1777877102 | 20.56° C | 46% | 994.5 hPa | - | - | - | - |
| 1777876203 | 20° C | 49% | 994.6 hPa | - | - | - | - |
| 1777875302 | 18.89° C | 50% | 994.5 hPa | - | - | - | - |
| 1777874402 | 17.22° C | 52% | 994.5 hPa | - | - | - | - |
| 1777873502 | 16.67° C | 54% | 994.4 hPa | - | - | - | - |
| 1777872602 | 16.11° C | 54% | 994.4 hPa | - | - | - | - |
| 1777871702 | 15.56° C | 53% | 994.4 hPa | - | - | - | - |
| 1777870802 | 15.56° C | 51% | 994.5 hPa | - | - | - | - |
| 1777869902 | 15.56° C | 51% | 994.3 hPa | - | - | - | - |
| 1777869002 | 15° C | 51% | 994.4 hPa | - | - | - | - |
| 1777868102 | 14.44° C | 53% | 994.6 hPa | - | - | - | - |
| 1777867202 | 13.89° C | 54% | 994.2 hPa | - | - | - | - |
| 1777866302 | 13.33° C | 57% | 994.1 hPa | - | - | - | - |
| 1777865402 | 12.22° C | 59% | 994.1 hPa | - | - | - | - |
| 1777864502 | 11.67° C | 60% | 994 hPa | - | - | - | - |
* Rain since midnight (hover to see other rain measurements)
** Current wind speed in m/s (hover to see current wind gust speed)